Time;durP1;ratioP1;P1;durP2;ratioP2;P2;SDS_P1;SDS_P2;PMS_P1;PMS_P2;Temp;Humidity;BMP_temperature;BMP_pressure;BME280_temperature;BME280_humidity;BME280_pressure;Samples;Min_cycle;Max_cycle;Signal;HPM_P1;HPM_P2
2024/01/23 00:00:37;;;;;;;;;;;;;;;;;;5126934;27;20335;-41
2024/01/23 00:03:02;;;;;;;;;;;;;;;;;;5127481;27;19938;-41
2024/01/23 00:05:28;;;;;;;;;;;;;;;;;;5127599;27;20018;-42
2024/01/23 00:07:53;;;;;;;;;;;;;;;;;;5127327;27;19924;-41
2024/01/23 00:10:21;;;;;;;;;;;;;;;;;;5127252;27;19999;-42
2024/01/23 00:12:46;;;;;;;;;;;;;;;;;;5127240;27;20393;-41
2024/01/23 00:15:12;;;;;;;;;;;;;;;;;;5126759;27;20336;-43
2024/01/23 00:17:37;;;;;;;;;;;;;;;;;;5127729;27;19927;-41
2024/01/23 00:20:04;;;;;;;;;;;;;;;;;;5127874;27;20271;-41
2024/01/23 00:22:30;;;;;;;;;;;;;;;;;;5127303;27;19962;-42
2024/01/23 00:24:55;;;;;;;;;;;;;;;;;;5127642;27;19924;-42
2024/01/23 00:27:20;;;;;;;;;;;;;;;;;;5127805;27;19962;-41
2024/01/23 00:29:46;;;;;;;;;;;;;;;;;;5127408;27;20013;-43
2024/01/23 00:32:11;;;;;;;;;;;;;;;;;;5126340;27;20413;-42
2024/01/23 00:34:37;;;;;;;;;;;;;;;;;;5126851;27;19969;-42
2024/01/23 00:37:03;;;;;;;;;;;;;;;;;;5127334;27;19955;-41
2024/01/23 00:39:28;;;;;;;;;;;;;;;;;;5127167;27;19931;-42
2024/01/23 00:41:54;;;;;;;;;;;;;;;;;;5126491;27;19971;-41
2024/01/23 00:44:19;;;;;;;;;;;;;;;;;;5127150;27;20019;-41
2024/01/23 00:46:45;;;;;;;;;;;;;;;;;;5127395;27;19953;-41
2024/01/23 00:49:10;;;;;;;;;;;;;;;;;;5127628;27;20060;-42
2024/01/23 00:51:36;;;;;;;;;;;;;;;;;;5127361;27;19924;-44
2024/01/23 00:54:02;;;;;;;;;;;;;;;;;;5126693;27;20335;-42
2024/01/23 00:56:27;;;;;;;;;;;;;;;;;;5127998;27;19932;-42
2024/01/23 00:58:53;;;;;;;;;;;;;;;;;;5127780;27;19924;-41
2024/01/23 01:01:18;;;;;;;;;;;;;;;;;;5126364;27;19959;-41
2024/01/23 01:03:44;;;;;;;;;;;;;;;;;;5126256;27;20010;-44
2024/01/23 01:06:09;;;;;;;;;;;;;;;;;;5127303;27;20006;-41
2024/01/23 01:08:35;;;;;;;;;;;;;;;;;;5127090;27;19985;-41
2024/01/23 01:11:00;;;;;;;;;;;;;;;;;;5127118;27;20409;-42
2024/01/23 01:13:26;;;;;;;;;;;;;;;;;;5126707;27;20391;-41
2024/01/23 01:15:51;;;;;;;;;;;;;;;;;;5127242;27;20046;-41
2024/01/23 01:18:17;;;;;;;;;;;;;;;;;;5127793;27;19923;-41
2024/01/23 01:20:43;;;;;;;;;;;;;;;;;;5127402;27;19930;-44
2024/01/23 01:23:08;;;;;;;;;;;;;;;;;;5126737;27;21231;-42
2024/01/23 01:25:34;;;;;;;;;;;;;;;;;;5126641;27;20029;-42
2024/01/23 01:27:59;;;;;;;;;;;;;;;;;;5126946;27;20397;-41
2024/01/23 01:30:28;;;;;;;;;;;;;;;;;;5126841;27;20358;-41
2024/01/23 01:32:53;;;;;;;;;;;;;;;;;;5125710;27;19970;-40
2024/01/23 01:35:19;;;;;;;;;;;;;;;;;;5126245;27;19923;-42
2024/01/23 01:37:44;;;;;;;;;;;;;;;;;;5126609;27;19923;-41
2024/01/23 01:40:10;;;;;;;;;;;;;;;;;;5126414;27;19980;-43
2024/01/23 01:42:35;;;;;;;;;;;;;;;;;;5125899;27;19982;-43
2024/01/23 01:45:03;;;;;;;;;;;;;;;;;;5126709;27;20026;-43
2024/01/23 01:47:28;;;;;;;;;;;;;;;;;;5127513;27;19927;-41
2024/01/23 01:49:54;;;;;;;;;;;;;;;;;;5126716;27;20003;-41
2024/01/23 01:52:19;;;;;;;;;;;;;;;;;;5125874;27;20314;-43
2024/01/23 01:54:46;;;;;;;;;;;;;;;;;;5126833;27;19981;-41
2024/01/23 01:57:11;;;;;;;;;;;;;;;;;;5126829;27;20362;-41
2024/01/23 01:59:37;;;;;;;;;;;;;;;;;;5126122;27;19949;-42
2024/01/23 02:02:02;;;;;;;;;;;;;;;;;;5125831;27;19980;-43
2024/01/23 02:04:27;;;;;;;;;;;;;;;;;;5126242;27;19935;-42
2024/01/23 02:06:53;;;;;;;;;;;;;;;;;;5129338;27;19927;-43
2024/01/23 02:09:18;;;;;;;;;;;;;;;;;;5130604;27;20371;-41
2024/01/23 02:11:44;;;;;;;;;;;;;;;;;;5129661;27;20177;-41
2024/01/23 02:14:09;;;;;;;;;;;;;;;;;;5129809;27;20011;-41
2024/01/23 02:16:35;;;;;;;;;;;;;;;;;;5130504;27;20029;-42
2024/01/23 02:19:00;;;;;;;;;;;;;;;;;;5130042;27;19932;-42
2024/01/23 02:21:26;;;;;;;;;;;;;;;;;;5129495;27;20469;-41
2024/01/23 02:23:51;;;;;;;;;;;;;;;;;;5128743;27;19965;-43
2024/01/23 02:26:17;;;;;;;;;;;;;;;;;;5129898;27;19927;-41
2024/01/23 02:28:42;;;;;;;;;;;;;;;;;;5129929;27;19987;-43
2024/01/23 02:31:08;;;;;;;;;;;;;;;;;;5129073;27;19931;-42
2024/01/23 02:33:33;;;;;;;;;;;;;;;;;;5128522;27;19924;-43
2024/01/23 02:35:59;;;;;;;;;;;;;;;;;;5129067;27;20022;-41
2024/01/23 02:38:24;;;;;;;;;;;;;;;;;;5129808;27;19923;-44
2024/01/23 02:40:50;;;;;;;;;;;;;;;;;;5129214;27;19924;-41
2024/01/23 02:43:15;;;;;;;;;;;;;;;;;;5128930;27;20376;-42
2024/01/23 02:45:41;;;;;;;;;;;;;;;;;;5129560;27;19930;-41
2024/01/23 02:48:06;;;;;;;;;;;;;;;;;;5130094;27;19924;-42
2024/01/23 02:50:32;;;;;;;;;;;;;;;;;;5128768;27;20006;-41
2024/01/23 02:52:57;;;;;;;;;;;;;;;;;;5128535;27;19970;-42
2024/01/23 02:55:23;;;;;;;;;;;;;;;;;;5129295;27;20007;-41
2024/01/23 02:57:48;;;;;;;;;;;;;;;;;;5129768;27;19981;-43
2024/01/23 03:00:14;;;;;;;;;;;;;;;;;;5129097;27;20378;-41
2024/01/23 03:02:39;;;;;;;;;;;;;;;;;;5128240;27;19938;-41
2024/01/23 03:05:05;;;;;;;;;;;;;;;;;;5129494;27;20016;-43
2024/01/23 03:07:30;;;;;;;;;;;;;;;;;;5129607;27;19962;-43
2024/01/23 03:09:56;;;;;;;;;;;;;;;;;;5129345;27;20022;-42
2024/01/23 03:12:22;;;;;;;;;;;;;;;;;;5128627;27;19928;-44
2024/01/23 03:14:47;;;;;;;;;;;;;;;;;;5129034;27;19927;-41
2024/01/23 03:17:13;;;;;;;;;;;;;;;;;;5128892;27;20039;-41
2024/01/23 03:19:38;;;;;;;;;;;;;;;;;;5128379;27;19928;-42
2024/01/23 03:22:04;;;;;;;;;;;;;;;;;;5127724;27;19930;-41
2024/01/23 03:24:29;;;;;;;;;;;;;;;;;;5128545;27;20283;-43
2024/01/23 03:26:55;;;;;;;;;;;;;;;;;;5128744;27;19938;-42
2024/01/23 03:29:20;;;;;;;;;;;;;;;;;;5128179;27;20006;-41
2024/01/23 03:31:46;;;;;;;;;;;;;;;;;;5128015;27;20405;-43
2024/01/23 03:34:11;;;;;;;;;;;;;;;;;;5128298;27;19965;-43
2024/01/23 03:36:37;;;;;;;;;;;;;;;;;;5128570;27;20014;-41
2024/01/23 03:39:02;;;;;;;;;;;;;;;;;;5129095;27;20018;-41
2024/01/23 03:41:28;;;;;;;;;;;;;;;;;;5128608;27;20022;-42
2024/01/23 03:43:53;;;;;;;;;;;;;;;;;;5127763;27;20351;-44
2024/01/23 03:46:18;;;;;;;;;;;;;;;;;;5128377;27;19930;-43
2024/01/23 03:48:44;;;;;;;;;;;;;;;;;;5129097;27;19973;-44
2024/01/23 03:51:10;;;;;;;;;;;;;;;;;;5127890;27;19931;-43
2024/01/23 03:53:35;;;;;;;;;;;;;;;;;;5127843;27;20040;-42
2024/01/23 03:56:01;;;;;;;;;;;;;;;;;;5128680;27;19993;-43
2024/01/23 03:58:26;;;;;;;;;;;;;;;;;;5128679;27;19973;-41
2024/01/23 04:00:53;;;;;;;;;;;;;;;;;;5127923;27;19923;-45
2024/01/23 04:03:18;;;;;;;;;;;;;;;;;;5127903;27;19931;-43
2024/01/23 04:05:44;;;;;;;;;;;;;;;;;;5128621;27;20327;-42
2024/01/23 04:08:09;;;;;;;;;;;;;;;;;;5128548;27;20361;-42
2024/01/23 04:10:35;;;;;;;;;;;;;;;;;;5128167;27;20018;-42
2024/01/23 04:13:00;;;;;;;;;;;;;;;;;;5127525;27;20031;-41
2024/01/23 04:15:26;;;;;;;;;;;;;;;;;;5127509;27;19970;-42
2024/01/23 04:17:55;;;;;;;;;;;;;;;;;;5127938;27;19928;-42
2024/01/23 04:20:20;;;;;;;;;;;;;;;;;;5127773;27;19924;-41
2024/01/23 04:22:45;;;;;;;;;;;;;;;;;;5126856;27;20018;-45
2024/01/23 04:25:12;;;;;;;;;;;;;;;;;;5128026;27;19974;-42
2024/01/23 04:27:37;;;;;;;;;;;;;;;;;;5127082;27;19924;-42
2024/01/23 04:30:03;;;;;;;;;;;;;;;;;;5127345;27;19993;-41
2024/01/23 04:32:28;;;;;;;;;;;;;;;;;;5127693;27;19927;-43
2024/01/23 04:34:54;;;;;;;;;;;;;;;;;;5127762;27;20346;-42
2024/01/23 04:37:19;;;;;;;;;;;;;;;;;;5127555;27;19946;-42
2024/01/23 04:39:45;;;;;;;;;;;;;;;;;;5127169;27;20278;-41
2024/01/23 04:42:11;;;;;;;;;;;;;;;;;;5127667;27;20389;-42
2024/01/23 04:44:36;;;;;;;;;;;;;;;;;;5127288;27;19927;-42
2024/01/23 04:47:02;;;;;;;;;;;;;;;;;;5127388;27;19934;-41
2024/01/23 04:49:27;;;;;;;;;;;;;;;;;;5127594;27;20010;-41
2024/01/23 04:51:53;;;;;;;;;;;;;;;;;;5127135;27;20381;-42
2024/01/23 04:54:18;;;;;;;;;;;;;;;;;;5126809;27;19931;-44
2024/01/23 04:56:47;;;;;;;;;;;;;;;;;;5127279;27;19999;-41
2024/01/23 04:59:13;;;;;;;;;;;;;;;;;;5127601;27;19962;-43
2024/01/23 05:01:38;;;;;;;;;;;;;;;;;;5127131;27;19927;-41
2024/01/23 05:04:04;;;;;;;;;;;;;;;;;;5127395;27;20681;-41
2024/01/23 05:06:29;;;;;;;;;;;;;;;;;;5127646;27;19931;-41
2024/01/23 05:08:55;;;;;;;;;;;;;;;;;;5127266;27;19980;-40
2024/01/23 05:11:20;;;;;;;;;;;;;;;;;;5126293;27;19955;-42
2024/01/23 05:13:46;;;;;;;;;;;;;;;;;;5126143;27;20402;-42
2024/01/23 05:16:11;;;;;;;;;;;;;;;;;;5127152;27;20310;-43
2024/01/23 05:18:37;;;;;;;;;;;;;;;;;;5126622;27;20011;-42
2024/01/23 05:21:03;;;;;;;;;;;;;;;;;;5125592;27;19924;-43
2024/01/23 05:23:28;;;;;;;;;;;;;;;;;;5125802;27;19958;-45
2024/01/23 05:25:53;;;;;;;;;;;;;;;;;;5126394;27;20608;-41
2024/01/23 05:28:19;;;;;;;;;;;;;;;;;;5126750;27;20438;-42
2024/01/23 05:30:44;;;;;;;;;;;;;;;;;;5126693;27;20309;-46
2024/01/23 05:33:10;;;;;;;;;;;;;;;;;;5125850;27;20340;-42
2024/01/23 05:35:36;;;;;;;;;;;;;;;;;;5126302;27;19991;-41
2024/01/23 05:38:01;;;;;;;;;;;;;;;;;;5127146;27;20419;-42
2024/01/23 05:40:26;;;;;;;;;;;;;;;;;;5127464;27;20055;-41
2024/01/23 05:42:52;;;;;;;;;;;;;;;;;;5129678;27;19969;-41
2024/01/23 05:45:17;;;;;;;;;;;;;;;;;;5130299;27;19974;-42
2024/01/23 05:47:43;;;;;;;;;;;;;;;;;;5130340;27;20039;-43
2024/01/23 05:50:08;;;;;;;;;;;;;;;;;;5130818;27;20018;-41
2024/01/23 05:52:34;;;;;;;;;;;;;;;;;;5129905;27;20597;-41
2024/01/23 05:55:00;;;;;;;;;;;;;;;;;;5130208;27;19927;-43
2024/01/23 05:57:26;;;;;;;;;;;;;;;;;;5130237;27;19976;-41
2024/01/23 05:59:51;;;;;;;;;;;;;;;;;;5130145;27;20174;-43
2024/01/23 06:02:17;;;;;;;;;;;;;;;;;;5130205;27;19982;-43
2024/01/23 06:04:42;;;;;;;;;;;;;;;;;;5129973;27;20373;-42
2024/01/23 06:07:08;;;;;;;;;;;;;;;;;;5129010;27;19981;-41
2024/01/23 06:09:33;;;;;;;;;;;;;;;;;;5129399;27;19977;-43
2024/01/23 06:11:59;;;;;;;;;;;;;;;;;;5129089;27;19923;-45
2024/01/23 06:14:24;;;;;;;;;;;;;;;;;;5128434;27;20286;-42
2024/01/23 06:16:50;;;;;;;;;;;;;;;;;;5129162;27;20022;-42
2024/01/23 06:19:15;;;;;;;;;;;;;;;;;;5129311;27;19932;-43
2024/01/23 06:21:41;;;;;;;;;;;;;;;;;;5128651;27;20382;-44
2024/01/23 06:24:06;;;;;;;;;;;;;;;;;;5127212;27;20450;-42
2024/01/23 06:26:32;;;;;;;;;;;;;;;;;;5129151;27;19959;-42
2024/01/23 06:28:58;;;;;;;;;;;;;;;;;;5129712;27;19963;-41
2024/01/23 06:31:26;;;;;;;;;;;;;;;;;;5128115;27;19927;-43
2024/01/23 06:33:51;;;;;;;;;;;;;;;;;;5128767;27;20258;-42
2024/01/23 06:36:17;;;;;;;;;;;;;;;;;;5128549;27;20285;-44
2024/01/23 06:38:42;;;;;;;;;;;;;;;;;;5128939;27;20137;-43
2024/01/23 06:41:07;;;;;;;;;;;;;;;;;;5128335;27;19967;-42
2024/01/23 06:43:33;;;;;;;;;;;;;;;;;;5128530;27;19924;-44
2024/01/23 06:45:58;;;;;;;;;;;;;;;;;;5128973;27;19935;-44
2024/01/23 06:48:24;;;;;;;;;;;;;;;;;;5128446;27;20015;-42
2024/01/23 06:50:50;;;;;;;;;;;;;;;;;;5124142;27;19930;-42
2024/01/23 06:53:15;;;;;;;;;;;;;;;;;;5124009;27;19931;-42
2024/01/23 06:55:40;;;;;;;;;;;;;;;;;;5118684;27;20362;-45
2024/01/23 06:58:06;;;;;;;;;;;;;;;;;;5128241;27;21008;-46
2024/01/23 07:00:33;;;;;;;;;;;;;;;;;;5125470;27;19930;-41
2024/01/23 07:02:58;;;;;;;;;;;;;;;;;;5126776;27;19923;-41
2024/01/23 07:05:24;;;;;;;;;;;;;;;;;;5126708;27;20275;-42
2024/01/23 07:07:49;;;;;;;;;;;;;;;;;;5125087;27;19967;-41
2024/01/23 07:10:15;;;;;;;;;;;;;;;;;;5125958;27;20026;-41
2024/01/23 07:12:40;;;;;;;;;;;;;;;;;;5126559;27;20397;-41
2024/01/23 07:15:06;;;;;;;;;;;;;;;;;;5122665;27;20039;-41
2024/01/23 07:17:31;;;;;;;;;;;;;;;;;;5125266;27;19931;-43
2024/01/23 07:19:58;;;;;;;;;;;;;;;;;;5123586;27;20370;-41
2024/01/23 07:22:24;;;;;;;;;;;;;;;;;;5119073;27;20385;-43
2024/01/23 07:24:49;;;;;;;;;;;;;;;;;;5121285;27;19931;-45
2024/01/23 07:27:15;;;;;;;;;;;;;;;;;;5115292;27;20390;-42
2024/01/23 07:29:40;;;;;;;;;;;;;;;;;;5118493;27;19930;-44
2024/01/23 07:32:06;;;;;;;;;;;;;;;;;;5123633;27;19931;-42
2024/01/23 07:34:32;;;;;;;;;;;;;;;;;;5114998;27;20018;-41
2024/01/23 07:36:57;;;;;;;;;;;;;;;;;;5112655;27;20781;-42
2024/01/23 07:39:23;;;;;;;;;;;;;;;;;;5119607;27;20333;-42
2024/01/23 07:41:48;;;;;;;;;;;;;;;;;;5119834;27;19994;-42
2024/01/23 07:44:14;;;;;;;;;;;;;;;;;;5122094;27;20408;-42
2024/01/23 07:46:39;;;;;;;;;;;;;;;;;;5113110;27;20311;-41
2024/01/23 07:49:05;;;;;;;;;;;;;;;;;;5111051;27;19933;-45
2024/01/23 07:51:30;;;;;;;;;;;;;;;;;;5114153;27;19951;-42
2024/01/23 07:53:56;;;;;;;;;;;;;;;;;;5117879;27;20715;-42
2024/01/23 07:56:22;;;;;;;;;;;;;;;;;;5115859;27;20315;-42
2024/01/23 07:58:48;;;;;;;;;;;;;;;;;;5115988;27;19931;-41
2024/01/23 08:01:13;;;;;;;;;;;;;;;;;;5116821;27;19928;-41
2024/01/23 08:03:38;;;;;;;;;;;;;;;;;;5114163;27;19927;-42
2024/01/23 08:06:04;;;;;;;;;;;;;;;;;;5116308;27;19962;-43
2024/01/23 08:08:30;;;;;;;;;;;;;;;;;;5111150;27;20345;-42
2024/01/23 08:10:55;;;;;;;;;;;;;;;;;;5121680;27;19976;-42
2024/01/23 08:13:22;;;;;;;;;;;;;;;;;;5116384;27;19931;-42
2024/01/23 08:15:47;;;;;;;;;;;;;;;;;;5113736;27;19967;-41
2024/01/23 08:18:13;;;;;;;;;;;;;;;;;;5118629;27;19931;-41
2024/01/23 08:20:39;;;;;;;;;;;;;;;;;;5118147;27;20748;-42
2024/01/23 08:23:04;;;;;;;;;;;;;;;;;;5119557;27;19983;-42
2024/01/23 08:25:30;;;;;;;;;;;;;;;;;;5118834;27;19934;-42
2024/01/23 08:27:55;;;;;;;;;;;;;;;;;;5115267;27;19927;-45
2024/01/23 08:30:21;;;;;;;;;;;;;;;;;;5117416;27;20213;-43
2024/01/23 08:32:46;;;;;;;;;;;;;;;;;;5122856;27;20290;-41
2024/01/23 08:35:12;;;;;;;;;;;;;;;;;;5121439;27;19934;-43
2024/01/23 08:37:37;;;;;;;;;;;;;;;;;;5119857;27;19932;-44
2024/01/23 08:40:03;;;;;;;;;;;;;;;;;;5115846;27;20104;-41
2024/01/23 08:42:29;;;;;;;;;;;;;;;;;;5126912;27;19929;-44
2024/01/23 08:44:55;;;;;;;;;;;;;;;;;;5119897;27;19937;-42
2024/01/23 08:47:21;;;;;;;;;;;;;;;;;;5121548;27;19980;-42
2024/01/23 08:49:46;;;;;;;;;;;;;;;;;;5121870;27;20014;-43
2024/01/23 08:52:12;;;;;;;;;;;;;;;;;;5117939;27;20022;-44
2024/01/23 08:54:37;;;;;;;;;;;;;;;;;;5121896;27;19924;-41
2024/01/23 08:57:03;;;;;;;;;;;;;;;;;;5121757;27;19983;-41
2024/01/23 08:59:28;;;;;;;;;;;;;;;;;;5126014;27;19932;-42
2024/01/23 09:01:54;;;;;;;;;;;;;;;;;;5118369;27;20302;-41
2024/01/23 09:04:19;;;;;;;;;;;;;;;;;;5123235;27;20018;-41
2024/01/23 09:06:45;;;;;;;;;;;;;;;;;;5121059;27;20030;-44
2024/01/23 09:09:10;;;;;;;;;;;;;;;;;;5120534;27;20405;-44
2024/01/23 09:11:36;;;;;;;;;;;;;;;;;;5117612;27;20397;-42
2024/01/23 09:14:01;;;;;;;;;;;;;;;;;;5121384;27;19967;-41
2024/01/23 09:16:27;;;;;;;;;;;;;;;;;;5115978;27;20035;-43
2024/01/23 09:18:52;;;;;;;;;;;;;;;;;;5115921;27;20769;-43
2024/01/23 09:21:18;;;;;;;;;;;;;;;;;;5122136;27;20374;-43
2024/01/23 09:23:43;;;;;;;;;;;;;;;;;;5120321;27;20409;-43
2024/01/23 09:26:09;;;;;;;;;;;;;;;;;;5117895;27;19927;-42
2024/01/23 09:28:34;;;;;;;;;;;;;;;;;;5119781;27;19974;-44
2024/01/23 09:31:00;;;;;;;;;;;;;;;;;;5121352;27;20022;-43
2024/01/23 09:33:25;;;;;;;;;;;;;;;;;;5122997;27;20405;-43
2024/01/23 09:35:51;;;;;;;;;;;;;;;;;;5120324;27;20010;-42
2024/01/23 09:38:17;;;;;;;;;;;;;;;;;;5125577;27;19938;-46
2024/01/23 09:40:42;;;;;;;;;;;;;;;;;;5126246;27;19924;-43
2024/01/23 09:43:08;;;;;;;;;;;;;;;;;;5125474;27;19951;-43
2024/01/23 09:45:33;;;;;;;;;;;;;;;;;;5124682;27;20010;-43
2024/01/23 09:47:59;;;;;;;;;;;;;;;;;;5123133;27;19928;-43
2024/01/23 09:50:26;;;;;;;;;;;;;;;;;;5121712;27;19927;-42
2024/01/23 09:52:51;;;;;;;;;;;;;;;;;;5123697;27;19955;-43
2024/01/23 09:55:18;;;;;;;;;;;;;;;;;;5121181;27;19938;-42
2024/01/23 09:57:44;;;;;;;;;;;;;;;;;;5123658;27;19927;-45
2024/01/23 10:00:12;;;;;;;;;;;;;;;;;;5115745;27;20031;-41
2024/01/23 10:02:38;;;;;;;;;;;;;;;;;;5115318;27;20248;-42
2024/01/23 10:05:04;;;;;;;;;;;;;;;;;;5118796;27;19934;-42
2024/01/23 10:07:29;;;;;;;;;;;;;;;;;;5122139;27;20384;-42
2024/01/23 10:09:55;;;;;;;;;;;;;;;;;;5124598;27;19931;-41
2024/01/23 10:12:20;;;;;;;;;;;;;;;;;;5117111;27;20514;-46
2024/01/23 10:14:48;;;;;;;;;;;;;;;;;;5124470;27;19946;-54
2024/01/23 10:17:13;;;;;;;;;;;;;;;;;;5125107;27;20461;-56
2024/01/23 10:19:38;;;;;;;;;;;;;;;;;;5114463;27;22450;-55
2024/01/23 10:22:04;;;;;;;;;;;;;;;;;;5115537;27;20316;-56
2024/01/23 10:24:29;;;;;;;;;;;;;;;;;;5122947;27;19971;-55
2024/01/23 10:26:55;;;;;;;;;;;;;;;;;;5120180;27;20034;-53
2024/01/23 10:29:20;;;;;;;;;;;;;;;;;;5120065;27;20059;-55
2024/01/23 10:31:46;;;;;;;;;;;;;;;;;;5122012;27;20022;-56
2024/01/23 10:34:12;;;;;;;;;;;;;;;;;;5120247;27;20272;-56
2024/01/23 10:36:37;;;;;;;;;;;;;;;;;;5117706;27;19950;-55
2024/01/23 10:39:03;;;;;;;;;;;;;;;;;;5116745;27;20017;-55
2024/01/23 10:41:28;;;;;;;;;;;;;;;;;;5120952;27;19924;-54
2024/01/23 10:43:54;;;;;;;;;;;;;;;;;;5122352;27;20008;-55
2024/01/23 10:46:19;;;;;;;;;;;;;;;;;;5123484;27;20367;-55
2024/01/23 10:48:45;;;;;;;;;;;;;;;;;;5125623;27;19942;-56
2024/01/23 10:51:10;;;;;;;;;;;;;;;;;;5120899;27;20468;-56
2024/01/23 10:53:36;;;;;;;;;;;;;;;;;;5119157;27;20018;-56
2024/01/23 10:56:01;;;;;;;;;;;;;;;;;;5125231;27;19959;-56
2024/01/23 10:58:27;;;;;;;;;;;;;;;;;;5126312;27;19963;-56
2024/01/23 11:00:52;;;;;;;;;;;;;;;;;;5127724;27;20036;-56
2024/01/23 11:03:18;;;;;;;;;;;;;;;;;;5125392;27;20377;-57
2024/01/23 11:05:43;;;;;;;;;;;;;;;;;;5124858;27;19931;-58
2024/01/23 11:08:09;;;;;;;;;;;;;;;;;;5116204;27;20430;-58
2024/01/23 11:10:34;;;;;;;;;;;;;;;;;;5123697;27;19966;-58
2024/01/23 11:13:00;;;;;;;;;;;;;;;;;;5126832;27;19937;-58
2024/01/23 11:15:25;;;;;;;;;;;;;;;;;;5126497;27;20339;-58
2024/01/23 11:17:51;;;;;;;;;;;;;;;;;;5116055;27;20691;-57
2024/01/23 11:20:16;;;;;;;;;;;;;;;;;;5124281;27;20010;-58
2024/01/23 11:22:42;;;;;;;;;;;;;;;;;;5122108;27;19984;-58
2024/01/23 11:25:08;;;;;;;;;;;;;;;;;;5123051;27;19931;-57
2024/01/23 11:27:33;;;;;;;;;;;;;;;;;;5121626;27;19931;-58
2024/01/23 11:29:59;;;;;;;;;;;;;;;;;;5122893;27;19927;-58
2024/01/23 11:32:25;;;;;;;;;;;;;;;;;;5123975;27;19927;-58
2024/01/23 11:34:51;;;;;;;;;;;;;;;;;;5123766;27;19923;-58
2024/01/23 11:37:16;;;;;;;;;;;;;;;;;;5124589;27;20117;-57
2024/01/23 11:39:45;;;;;;;;;;;;;;;;;;5128565;27;20383;-57
2024/01/23 11:42:10;;;;;;;;;;;;;;;;;;5120935;27;19934;-57
2024/01/23 11:44:36;;;;;;;;;;;;;;;;;;5124664;27;20045;-57
2024/01/23 11:47:03;;;;;;;;;;;;;;;;;;5119930;27;20273;-57
2024/01/23 11:49:29;;;;;;;;;;;;;;;;;;5122228;27;19968;-57
2024/01/23 11:51:55;;;;;;;;;;;;;;;;;;5121058;27;19935;-57
2024/01/23 11:54:20;;;;;;;;;;;;;;;;;;5119346;27;20193;-57
2024/01/23 11:56:45;;;;;;;;;;;;;;;;;;5121456;27;20018;-57
2024/01/23 11:59:12;;;;;;;;;;;;;;;;;;5121984;27;19934;-57
2024/01/23 12:01:38;;;;;;;;;;;;;;;;;;5116978;27;20010;-57
2024/01/23 12:04:03;;;;;;;;;;;;;;;;;;5122320;27;20055;-57
2024/01/23 12:06:29;;;;;;;;;;;;;;;;;;5123038;27;20330;-57
2024/01/23 12:08:54;;;;;;;;;;;;;;;;;;5123672;27;19954;-58
2024/01/23 12:11:20;;;;;;;;;;;;;;;;;;5114307;27;19944;-57
2024/01/23 12:13:45;;;;;;;;;;;;;;;;;;5116811;27;19976;-57
2024/01/23 12:16:11;;;;;;;;;;;;;;;;;;5120651;27;20642;-57
2024/01/23 12:18:36;;;;;;;;;;;;;;;;;;5123978;27;20112;-57
2024/01/23 12:21:04;;;;;;;;;;;;;;;;;;5124851;27;19934;-57
2024/01/23 12:23:29;;;;;;;;;;;;;;;;;;5123984;27;19976;-57
2024/01/23 12:25:55;;;;;;;;;;;;;;;;;;5113922;27;20009;-57
2024/01/23 12:28:20;;;;;;;;;;;;;;;;;;5122579;27;19927;-57
2024/01/23 12:30:46;;;;;;;;;;;;;;;;;;5122637;27;19931;-57
2024/01/23 12:33:11;;;;;;;;;;;;;;;;;;5038684;28;19944;-57
2024/01/23 12:35:37;;;;;;;;;;;;;;;;;;5031844;28;20023;-57
2024/01/23 12:38:02;;;;;;;;;;;;;;;;;;5039753;28;21761;-57
2024/01/23 12:40:28;;;;;;;;;;;;;;;;;;5037434;28;19925;-57
2024/01/23 12:42:53;;;;;;;;;;;;;;;;;;5041598;28;19968;-58
2024/01/23 12:45:19;;;;;;;;;;;;;;;;;;5038359;28;19925;-57
2024/01/23 12:47:44;;;;;;;;;;;;;;;;;;5040200;28;19937;-57
2024/01/23 12:50:10;;;;;;;;;;;;;;;;;;5039100;28;19975;-56
2024/01/23 12:52:35;;;;;;;;;;;;;;;;;;5123473;27;19924;-56
2024/01/23 12:55:01;;;;;;;;;;;;;;;;;;5126181;27;19974;-56
2024/01/23 12:57:27;;;;;;;;;;;;;;;;;;5120313;27;19931;-57
2024/01/23 12:59:52;;;;;;;;;;;;;;;;;;5123858;27;19979;-57
2024/01/23 13:02:18;;;;;;;;;;;;;;;;;;5120460;27;19969;-57
2024/01/23 13:04:43;;;;;;;;;;;;;;;;;;5120684;27;19927;-57
2024/01/23 13:07:09;;;;;;;;;;;;;;;;;;5121660;27;19975;-57
2024/01/23 13:09:34;;;;;;;;;;;;;;;;;;5124679;27;20031;-57
2024/01/23 13:12:00;;;;;;;;;;;;;;;;;;5118890;27;20438;-57
2024/01/23 13:14:25;;;;;;;;;;;;;;;;;;5122621;27;20548;-57
2024/01/23 13:16:51;;;;;;;;;;;;;;;;;;5123392;27;20033;-57
2024/01/23 13:19:16;;;;;;;;;;;;;;;;;;5124280;27;20018;-57
2024/01/23 13:21:42;;;;;;;;;;;;;;;;;;5123026;27;20022;-58
2024/01/23 13:24:07;;;;;;;;;;;;;;;;;;5124712;27;19955;-57
2024/01/23 13:26:33;;;;;;;;;;;;;;;;;;5125021;27;19923;-58
2024/01/23 13:28:58;;;;;;;;;;;;;;;;;;5126477;27;19924;-58
2024/01/23 13:31:26;;;;;;;;;;;;;;;;;;5125886;27;20011;-58
2024/01/23 13:33:51;;;;;;;;;;;;;;;;;;5126414;27;20199;-58
2024/01/23 13:36:17;;;;;;;;;;;;;;;;;;5126036;27;19931;-58
2024/01/23 13:38:42;;;;;;;;;;;;;;;;;;5126943;27;20260;-58
2024/01/23 13:41:17;;;;;;;;;;;;;;;;;;5125740;27;20700;-57
2024/01/23 13:43:43;;;;;;;;;;;;;;;;;;5125026;27;20030;-57
2024/01/23 13:46:08;;;;;;;;;;;;;;;;;;5125739;27;19923;-58
2024/01/23 13:48:34;;;;;;;;;;;;;;;;;;5125933;27;20645;-56
2024/01/23 13:50:59;;;;;;;;;;;;;;;;;;5125376;27;19927;-57
2024/01/23 13:53:25;;;;;;;;;;;;;;;;;;5123625;27;20022;-57
2024/01/23 13:55:50;;;;;;;;;;;;;;;;;;5120959;27;20030;-57
2024/01/23 13:58:16;;;;;;;;;;;;;;;;;;5122448;27;20445;-62
2024/01/23 14:00:41;;;;;;;;;;;;;;;;;;5120704;27;20444;-58
2024/01/23 14:03:09;;;;;;;;;;;;;;;;;;5127366;27;19969;-57
2024/01/23 14:05:34;;;;;;;;;;;;;;;;;;5128801;27;20550;-58
2024/01/23 14:08:00;;;;;;;;;;;;;;;;;;5129760;27;20026;-58
2024/01/23 14:10:26;;;;;;;;;;;;;;;;;;5128944;27;19923;-58
2024/01/23 14:12:51;;;;;;;;;;;;;;;;;;5129643;27;20023;-57
2024/01/23 14:15:18;;;;;;;;;;;;;;;;;;5129252;27;19924;-57
2024/01/23 14:17:44;;;;;;;;;;;;;;;;;;5129929;27;19954;-57
2024/01/23 14:20:12;;;;;;;;;;;;;;;;;;5127393;27;19942;-57
2024/01/23 14:22:38;;;;;;;;;;;;;;;;;;5127078;27;20012;-58
2024/01/23 14:25:03;;;;;;;;;;;;;;;;;;5128204;27;20045;-57
2024/01/23 14:27:29;;;;;;;;;;;;;;;;;;5129073;27;20014;-57
2024/01/23 14:29:54;;;;;;;;;;;;;;;;;;5129358;27;19927;-57
2024/01/23 14:32:20;;;;;;;;;;;;;;;;;;5126294;27;20474;-58
2024/01/23 14:34:48;;;;;;;;;;;;;;;;;;5121769;27;20354;-57
2024/01/23 14:37:14;;;;;;;;;;;;;;;;;;5123644;27;20026;-44
2024/01/23 14:39:39;;;;;;;;;;;;;;;;;;5125164;27;19976;-45
2024/01/23 14:42:05;;;;;;;;;;;;;;;;;;5127951;27;20346;-44
2024/01/23 14:44:30;;;;;;;;;;;;;;;;;;5128649;27;19974;-45
2024/01/23 14:46:56;;;;;;;;;;;;;;;;;;5128219;27;20244;-44
2024/01/23 14:49:22;;;;;;;;;;;;;;;;;;5127861;27;19924;-43
2024/01/23 14:51:48;;;;;;;;;;;;;;;;;;5128249;27;19930;-44
2024/01/23 14:54:14;;;;;;;;;;;;;;;;;;5128055;27;19923;-44
2024/01/23 14:56:39;;;;;;;;;;;;;;;;;;5127623;27;19924;-44
2024/01/23 14:59:04;;;;;;;;;;;;;;;;;;5128559;27;20334;-43
2024/01/23 15:01:30;;;;;;;;;;;;;;;;;;5129296;27;19924;-43
2024/01/23 15:03:55;;;;;;;;;;;;;;;;;;5129073;27;20390;-45
2024/01/23 15:06:21;;;;;;;;;;;;;;;;;;5129099;27;20014;-45
2024/01/23 15:08:46;;;;;;;;;;;;;;;;;;5129225;27;19929;-45
2024/01/23 15:11:12;;;;;;;;;;;;;;;;;;5129323;27;20437;-44
2024/01/23 15:13:38;;;;;;;;;;;;;;;;;;5128936;27;19985;-45
2024/01/23 15:16:03;;;;;;;;;;;;;;;;;;5128938;27;19923;-44
2024/01/23 15:18:29;;;;;;;;;;;;;;;;;;5129490;27;20044;-44
2024/01/23 15:20:54;;;;;;;;;;;;;;;;;;5128606;27;20301;-42
2024/01/23 15:23:20;;;;;;;;;;;;;;;;;;5128797;27;20264;-44
2024/01/23 15:25:46;;;;;;;;;;;;;;;;;;5128430;27;19927;-45
2024/01/23 15:28:12;;;;;;;;;;;;;;;;;;5128617;27;20008;-43
2024/01/23 15:30:37;;;;;;;;;;;;;;;;;;5128780;27;20006;-44
2024/01/23 15:33:03;;;;;;;;;;;;;;;;;;5128616;27;19931;-43
2024/01/23 15:35:28;;;;;;;;;;;;;;;;;;5127984;27;19923;-45
2024/01/23 15:37:54;;;;;;;;;;;;;;;;;;5128130;27;19927;-45
2024/01/23 15:40:22;;;;;;;;;;;;;;;;;;5127430;27;20385;-44
2024/01/23 15:42:48;;;;;;;;;;;;;;;;;;5127415;27;20006;-44
2024/01/23 15:45:13;;;;;;;;;;;;;;;;;;5126636;27;19931;-43
2024/01/23 15:47:38;;;;;;;;;;;;;;;;;;5127374;27;19927;-44
2024/01/23 15:50:05;;;;;;;;;;;;;;;;;;5127879;27;20388;-44
2024/01/23 15:52:31;;;;;;;;;;;;;;;;;;5127577;27;19976;-44
2024/01/23 15:54:56;;;;;;;;;;;;;;;;;;5127807;27;19984;-44
2024/01/23 15:57:21;;;;;;;;;;;;;;;;;;5127830;27;20060;-44
2024/01/23 15:59:47;;;;;;;;;;;;;;;;;;5127567;27;20385;-44
2024/01/23 16:02:12;;;;;;;;;;;;;;;;;;5128005;27;19924;-43
2024/01/23 16:04:38;;;;;;;;;;;;;;;;;;5127713;27;20035;-45
2024/01/23 16:07:03;;;;;;;;;;;;;;;;;;5127718;27;20278;-43
2024/01/23 16:09:29;;;;;;;;;;;;;;;;;;5128132;27;20281;-45
2024/01/23 16:11:54;;;;;;;;;;;;;;;;;;5128302;27;20247;-43
2024/01/23 16:14:20;;;;;;;;;;;;;;;;;;5128072;27;19923;-45
2024/01/23 16:16:45;;;;;;;;;;;;;;;;;;5128072;27;19927;-44
2024/01/23 16:19:12;;;;;;;;;;;;;;;;;;5128274;27;20022;-45
2024/01/23 16:21:38;;;;;;;;;;;;;;;;;;5127677;27;20310;-44
2024/01/23 16:24:03;;;;;;;;;;;;;;;;;;5127155;27;19968;-45
2024/01/23 16:26:29;;;;;;;;;;;;;;;;;;5127528;27;19934;-44
2024/01/23 16:28:54;;;;;;;;;;;;;;;;;;5127488;27;19931;-44
2024/01/23 16:31:20;;;;;;;;;;;;;;;;;;5127691;27;19966;-45
2024/01/23 16:33:45;;;;;;;;;;;;;;;;;;5126635;27;20446;-44